Time;durP1;ratioP1;P1;durP2;ratioP2;P2;SDS_P1;SDS_P2;PMS_P1;PMS_P2;Temp;Humidity;BMP_temperature;BMP_pressure;BME280_temperature;BME280_humidity;BME280_pressure;Samples;Min_cycle;Max_cycle;Signal;HPM_P1;HPM_P2
2021/11/10 00:02:10;;;;;;;1.92;1.20;;;;;;;-145.06;100.00;60892.56;4865682;28;19917;-89
2021/11/10 00:04:49;;;;;;;2.10;1.50;;;;;;;-145.06;100.00;60892.56;4869321;28;20388;-89
2021/11/10 00:07:28;;;;;;;1.88;1.30;;;;;;;-145.06;100.00;60892.56;4859899;28;20761;-89
2021/11/10 00:10:09;;;;;;;1.60;1.15;;;;;;;-145.06;100.00;60892.56;4868315;28;20037;-89
2021/11/10 00:12:48;;;;;;;2.08;1.30;;;;;;;-145.06;100.00;60892.56;4870372;28;20115;-88
2021/11/10 00:15:27;;;;;;;1.67;1.20;;;;;;;-145.06;100.00;60892.56;4862452;28;20092;-90
2021/11/10 00:18:05;;;;;;;2.97;1.47;;;;;;;-145.06;100.00;60892.56;4870619;28;20271;-88
2021/11/10 00:20:45;;;;;;;1.63;1.30;;;;;;;-145.06;100.00;60892.56;4865443;28;20033;-88
2021/11/10 00:23:25;;;;;;;1.75;1.23;;;;;;;-145.06;100.00;60892.56;4878888;28;20037;-90
2021/11/10 00:26:04;;;;;;;2.35;1.35;;;;;;;-145.06;100.00;60892.56;4872894;28;20021;-88
2021/11/10 00:28:43;;;;;;;1.47;1.20;;;;;;;5.49;100.00;60892.56;4867306;28;20108;-89
2021/11/10 00:31:22;;;;;;;1.77;1.30;;;;;;;-145.06;100.00;60892.56;4890246;28;20036;-90
2021/11/10 00:34:01;;;;;;;1.77;1.20;;;;;;;-145.06;100.00;60892.56;4869730;28;20276;-88
2021/11/10 00:36:40;;;;;;;2.53;1.40;;;;;;;-145.06;100.00;60892.56;4870546;28;20029;-89
2021/11/10 00:39:19;;;;;;;1.27;1.00;;;;;;;-145.06;100.00;60892.56;4875982;28;20479;-88
2021/11/10 00:41:58;;;;;;;1.65;1.23;;;;;;;-145.06;100.00;60892.56;4871915;28;20280;-88
2021/11/10 00:44:37;;;;;;;1.40;0.90;;;;;;;-145.06;100.00;60892.56;4864800;28;20037;-89
2021/11/10 00:47:15;;;;;;;1.20;0.95;;;;;;;4.84;100.00;60892.56;4870682;28;20037;-89
2021/11/10 00:49:54;;;;;;;1.07;0.90;;;;;;;-145.06;100.00;60892.56;4859604;28;20037;-89
2021/11/10 00:52:34;;;;;;;1.73;0.93;;;;;;;-145.06;100.00;60892.56;4865251;28;20028;-88
2021/11/10 00:55:13;;;;;;;1.45;1.00;;;;;;;-145.06;100.00;60892.56;4870437;28;20304;-89
2021/11/10 00:57:52;;;;;;;1.47;0.97;;;;;;;-145.06;100.00;60892.56;4869965;28;20068;-90
2021/11/10 01:00:30;;;;;;;1.17;0.85;;;;;;;-145.06;100.00;60892.56;4866612;28;20029;-89
2021/11/10 01:03:10;;;;;;;1.00;0.88;;;;;;;-145.06;100.00;60892.56;4871983;28;20037;-87
2021/11/10 01:05:49;;;;;;;1.58;0.98;;;;;;;-145.06;100.00;60892.56;4865931;28;20033;-89
2021/11/10 01:08:28;;;;;;;1.20;0.97;;;;;;;-145.06;100.00;60892.56;4870588;28;20033;-88
2021/11/10 01:11:07;;;;;;;1.60;0.88;;;;;;;-145.06;100.00;60892.56;4870522;28;20367;-89
2021/11/10 01:13:46;;;;;;;1.20;1.00;;;;;;;-145.06;100.00;60892.56;4865472;28;20033;-89
2021/11/10 01:16:25;;;;;;;1.27;0.87;;;;;;;-145.06;100.00;60892.56;4857911;28;20037;-87
2021/11/10 01:19:04;;;;;;;1.15;0.90;;;;;;;-145.06;100.00;60892.56;4891993;28;20267;-89
2021/11/10 01:21:43;;;;;;;2.63;1.27;;;;;;;-145.06;100.00;60892.56;4881509;28;20032;-88
2021/11/10 01:24:22;;;;;;;2.00;1.23;;;;;;;-145.06;100.00;60892.56;4865022;28;20100;-89
2021/11/10 01:27:01;;;;;;;1.40;1.30;;;;;;;4.19;100.00;60892.56;4864901;28;20256;-88
2021/11/10 01:29:41;;;;;;;1.38;1.23;;;;;;;-145.06;100.00;60892.56;4857421;28;20021;-89
2021/11/10 01:32:21;;;;;;;;;;;;;;;-145.06;100.00;60892.56;4874342;28;20036;-91
2021/11/10 01:35:00;;;;;;;1.75;1.10;;;;;;;-145.06;100.00;60892.56;4874533;28;19912;-89
2021/11/10 01:37:39;;;;;;;1.60;1.17;;;;;;;-145.06;100.00;60892.56;4869803;28;20025;-89
2021/11/10 01:40:19;;;;;;;1.55;0.90;;;;;;;-145.06;100.00;60892.56;4872911;28;20276;-88
2021/11/10 01:43:13;;;;;;;2.25;1.02;;;;;;;-145.06;100.00;60892.56;4868035;28;20033;-89
2021/11/10 01:45:56;;;;;;;1.30;0.90;;;;;;;-145.06;100.00;60892.56;4871748;28;20057;-88
2021/11/10 01:48:35;;;;;;;1.13;0.90;;;;;;;-145.06;100.00;60892.56;4876585;28;20041;-89
2021/11/10 01:51:14;;;;;;;2.72;1.08;;;;;;;-145.06;100.00;60892.56;4875154;28;20108;-89
2021/11/10 01:53:53;;;;;;;1.90;1.20;;;;;;;-145.06;100.00;60892.56;4864228;28;20025;-89
2021/11/10 01:56:32;;;;;;;1.35;1.00;;;;;;;-145.06;100.00;60892.56;4871554;28;20533;-89
2021/11/10 01:59:26;;;;;;;1.90;1.00;;;;;;;-145.06;100.00;60892.56;4872888;28;20037;-89
2021/11/10 02:02:09;;;;;;;1.65;1.08;;;;;;;-145.06;100.00;60892.56;4868534;28;20037;-89
2021/11/10 02:04:49;;;;;;;1.95;1.00;;;;;;;-145.06;100.00;60892.56;4870689;28;20017;-89
2021/11/10 02:07:28;;;;;;;1.63;1.08;;;;;;;-145.06;100.00;60892.56;4871084;28;20037;-89
2021/11/10 02:10:10;;;;;;;1.42;1.17;;;;;;;-145.06;100.00;60892.56;4863096;28;20613;-89
2021/11/10 02:12:50;;;;;;;2.30;1.10;;;;;;;-145.06;100.00;60892.56;4865670;28;20059;-89
2021/11/10 02:15:29;;;;;;;1.95;1.20;;;;;;;-145.06;100.00;60892.56;4857812;28;20041;-90
2021/11/10 02:18:08;;;;;;;1.70;1.25;;;;;;;-145.06;100.00;60892.56;4869684;28;20036;-88
2021/11/10 02:20:49;;;;;;;2.23;1.20;;;;;;;-145.06;100.00;60892.56;4864392;28;20033;-89
2021/11/10 02:23:28;;;;;;;1.33;1.10;;;;;;;-145.06;100.00;60892.56;4870666;28;20752;-89
2021/11/10 02:26:12;;;;;;;0.93;0.80;;;;;;;-145.06;100.00;60892.56;4874441;28;20029;-89
2021/11/10 02:28:52;;;;;;;1.45;1.10;;;;;;;-145.06;100.00;60892.56;4861037;28;20025;-88
2021/11/10 02:31:36;;;;;;;2.30;1.25;;;;;;;-145.06;100.00;60892.56;4863741;28;20037;-88
2021/11/10 02:34:15;;;;;;;2.00;1.10;;;;;;;-145.06;100.00;60892.56;4868672;28;20112;-89
2021/11/10 02:36:55;;;;;;;1.90;1.20;;;;;;;-145.06;100.00;60892.56;4858612;28;20034;-89
2021/11/10 02:39:36;;;;;;;1.15;0.93;;;;;;;-145.06;100.00;60892.56;4874257;28;20427;-90
2021/11/10 02:42:17;;;;;;;1.35;1.00;;;;;;;-145.06;100.00;60892.56;4874442;28;20041;-89
2021/11/10 02:44:56;;;;;;;1.05;0.95;;;;;;;-145.06;100.00;60892.56;4859723;28;20021;-89
2021/11/10 02:47:35;;;;;;;1.25;0.90;;;;;;;-145.06;100.00;60892.56;4870599;28;20364;-90
2021/11/10 02:50:14;;;;;;;;;;;;;;;-145.06;100.00;60892.56;4860309;28;20487;-89
2021/11/10 02:52:54;;;;;;;1.15;0.80;;;;;;;-145.06;100.00;60892.56;4873572;28;20271;-89
2021/11/10 02:55:33;;;;;;;1.67;1.07;;;;;;;-145.06;100.00;60892.56;4873031;28;20029;-89
2021/11/10 02:58:12;;;;;;;1.00;0.90;;;;;;;-145.06;100.00;60892.56;4877217;28;20622;-88
2021/11/10 03:00:51;;;;;;;1.10;1.00;;;;;;;-145.06;100.00;60892.56;4874209;28;20030;-89
2021/11/10 03:03:30;;;;;;;1.30;0.95;;;;;;;-145.06;100.00;60892.56;4865304;28;20264;-89
2021/11/10 03:06:09;;;;;;;1.20;1.00;;;;;;;-145.06;100.00;60892.56;4864522;28;20116;-89
2021/11/10 03:08:49;;;;;;;1.00;0.80;;;;;;;-145.06;100.00;60892.56;4872217;28;20674;-88
2021/11/10 03:11:31;;;;;;;0.90;0.80;;;;;;;-145.06;100.00;60892.56;4871681;28;20033;-89
2021/11/10 03:14:10;;;;;;;1.33;1.00;;;;;;;-145.06;100.00;60892.56;4870924;28;20256;-90
2021/11/10 03:16:49;;;;;;;1.25;0.90;;;;;;;-145.06;100.00;60892.56;4876440;28;20029;-90
2021/11/10 03:19:28;;;;;;;1.40;1.02;;;;;;;-145.06;100.00;60892.56;4877337;28;20037;-90
2021/11/10 03:22:10;;;;;;;1.30;0.90;;;;;;;-145.06;100.00;60892.56;4876532;28;20372;-89
2021/11/10 03:24:52;;;;;;;0.80;0.77;;;;;;;-145.06;100.00;60892.56;4863855;28;20036;-89
2021/11/10 03:27:31;;;;;;;1.08;0.93;;;;;;;-145.06;100.00;60892.56;4865583;28;20096;-89
2021/11/10 03:30:10;;;;;;;2.37;1.00;;;;;;;-145.06;100.00;60892.56;4859235;28;20026;-89
2021/11/10 03:32:51;;;;;;;1.52;1.17;;;;;;;-145.06;100.00;60892.56;4873861;28;20749;-90
2021/11/10 03:35:30;;;;;;;1.20;0.90;;;;;;;-145.06;100.00;60892.56;4870755;28;20021;-89
2021/11/10 03:38:09;;;;;;;1.17;0.90;;;;;;;-145.06;100.00;60892.56;4863687;28;20037;-89
2021/11/10 03:40:48;;;;;;;1.83;1.10;;;;;;;10.68;100.00;60892.56;4868274;28;20136;-89
2021/11/10 03:43:28;;;;;;;1.80;1.10;;;;;;;-145.06;100.00;60892.56;4868682;28;20112;-89
2021/11/10 03:46:06;;;;;;;1.40;0.90;;;;;;;-145.06;100.00;60892.56;4874491;28;20021;-89
2021/11/10 03:48:47;;;;;;;1.65;1.13;;;;;;;-145.06;100.00;60892.56;4864689;28;20029;-90
2021/11/10 03:51:27;;;;;;;2.22;1.50;;;;;;;-145.06;100.00;60892.56;4867389;28;20037;-90
2021/11/10 03:54:06;;;;;;;5.05;1.52;;;;;;;4.19;100.00;60892.56;4876544;28;20029;-89
2021/11/10 03:56:46;;;;;;;4.18;1.77;;;;;;;-145.06;100.00;60892.56;4871448;28;20029;-89
2021/11/10 03:59:25;;;;;;;4.80;1.65;;;;;;;-145.06;100.00;60892.56;4866729;28;20032;-88
2021/11/10 04:02:06;;;;;;;2.80;1.53;;;;;;;-145.06;100.00;60892.56;4873768;28;20029;-89
2021/11/10 04:04:45;;;;;;;2.20;1.27;;;;;;;-145.06;100.00;60892.56;4875412;28;20029;-90
2021/11/10 04:07:24;;;;;;;3.95;1.65;;;;;;;-145.06;100.00;60892.56;4874923;28;20040;-89
2021/11/10 04:10:03;;;;;;;3.17;1.30;;;;;;;-145.06;100.00;60892.56;4874297;28;20020;-89
2021/11/10 04:12:42;;;;;;;1.70;1.17;;;;;;;-145.06;100.00;60892.56;4869169;28;20471;-89
2021/11/10 04:15:21;;;;;;;1.80;1.15;;;;;;;-145.06;100.00;60892.56;4874520;28;20375;-90
2021/11/10 04:18:00;;;;;;;1.50;0.90;;;;;;;-145.06;100.00;60892.56;4874239;28;20037;-89
2021/11/10 04:20:40;;;;;;;1.92;1.08;;;;;;;187.52;100.00;60892.56;4872603;28;20934;-90
2021/11/10 04:23:18;;;;;;;1.47;1.03;;;;;;;-145.06;100.00;60892.56;4874483;28;20384;-89
2021/11/10 04:25:59;;;;;;;0.80;0.80;;;;;;;-145.06;100.00;60892.56;4884528;28;20025;-89
2021/11/10 04:28:39;;;;;;;0.93;0.70;;;;;;;-145.06;100.00;60892.56;4878042;28;20044;-89
2021/11/10 04:31:19;;;;;;;2.47;0.85;;;;;;;-145.06;100.00;60892.56;4866883;28;20033;-89
2021/11/10 04:33:59;;;;;;;1.02;0.80;;;;;;;2.87;100.00;60892.56;4867654;28;20045;-87
2021/11/10 04:36:38;;;;;;;;;;;;;;;2.85;100.00;60892.56;4876389;28;20037;-89
2021/11/10 04:39:17;;;;;;;1.17;0.90;;;;;;;2.85;100.00;60892.56;4859577;28;19908;-90
2021/11/10 04:41:56;;;;;;;0.97;0.70;;;;;;;2.80;100.00;60892.56;4877289;28;20591;-90
2021/11/10 04:44:36;;;;;;;0.80;0.65;;;;;;;-145.06;100.00;60892.56;4875459;28;20037;-88
2021/11/10 04:47:15;;;;;;;1.10;0.70;;;;;;;-145.06;100.00;60892.56;4876642;28;20065;-89
2021/11/10 04:49:55;;;;;;;1.17;0.80;;;;;;;-145.06;100.00;60892.56;4876471;28;20383;-89
2021/11/10 04:52:36;;;;;;;0.88;0.70;;;;;;;2.77;100.00;60892.56;4864620;28;20376;-89
2021/11/10 04:55:15;;;;;;;0.73;0.65;;;;;;;21.08;100.00;60892.56;4874054;28;20033;-88
2021/11/10 04:57:54;;;;;;;1.85;0.88;;;;;;;-145.06;100.00;60892.56;4871701;28;20483;-89
2021/11/10 05:00:33;;;;;;;0.60;0.57;;;;;;;-145.06;100.00;60892.56;4862169;28;20033;-89
2021/11/10 05:03:13;;;;;;;0.90;0.80;;;;;;;2.73;100.00;60892.56;4868123;28;20291;-88
2021/11/10 05:05:52;;;;;;;0.77;0.70;;;;;;;-145.06;100.00;60892.56;4872654;28;20287;-89
2021/11/10 05:08:31;;;;;;;1.02;0.82;;;;;;;-145.06;100.00;60892.56;4873537;28;20427;-89
2021/11/10 05:11:10;;;;;;;0.77;0.77;;;;;;;-145.06;100.00;60892.56;4876069;28;20029;-88
2021/11/10 05:13:50;;;;;;;0.83;0.70;;;;;;;5.49;100.00;60892.56;4870965;28;20032;-89
2021/11/10 05:16:29;;;;;;;0.63;0.63;;;;;;;-145.06;100.00;60892.56;4894204;28;20306;-89
2021/11/10 05:19:08;;;;;;;0.98;0.70;;;;;;;-145.06;100.00;60892.56;4894577;28;20040;-90
2021/11/10 05:21:47;;;;;;;0.88;0.80;;;;;;;2.89;100.00;60892.56;4895798;28;20028;-89
2021/11/10 05:24:28;;;;;;;0.70;0.65;;;;;;;2.63;100.00;60892.56;4873705;28;20029;-88
2021/11/10 05:27:07;;;;;;;1.90;0.60;;;;;;;-145.06;100.00;60892.56;4875554;28;20478;-88
2021/11/10 05:29:46;;;;;;;0.83;0.70;;;;;;;-145.06;100.00;60892.56;4875744;28;20435;-89
2021/11/10 05:32:25;;;;;;;0.60;0.60;;;;;;;-145.06;100.00;60892.56;4861345;28;20037;-90
2021/11/10 05:35:05;;;;;;;1.00;0.70;;;;;;;-145.06;100.00;60892.56;4860867;28;20633;-90
2021/11/10 05:37:44;;;;;;;0.65;0.60;;;;;;;187.52;100.00;60892.56;4867368;28;20061;-89
2021/11/10 05:40:23;;;;;;;0.75;0.75;;;;;;;2.60;100.00;60892.56;4865220;28;20387;-89
2021/11/10 05:43:04;;;;;;;0.80;0.70;;;;;;;-145.06;100.00;60892.56;4878115;28;20033;-89
2021/11/10 05:45:43;;;;;;;0.80;0.60;;;;;;;-145.06;100.00;60892.56;4864877;28;20057;-89
2021/11/10 05:48:22;;;;;;;1.23;0.70;;;;;;;2.89;100.00;60892.56;4868153;28;20033;-88
2021/11/10 05:51:02;;;;;;;0.70;0.60;;;;;;;2.73;100.00;60892.56;4866269;28;20025;-89
2021/11/10 05:53:44;;;;;;;0.90;0.77;;;;;;;187.52;100.00;60892.56;4863623;28;20364;-89
2021/11/10 05:56:26;;;;;;;1.20;0.90;;;;;;;-145.06;100.00;60892.56;4867865;28;20029;-90
2021/11/10 05:59:06;;;;;;;1.00;0.70;;;;;;;171.90;100.00;60892.56;4885331;28;20032;-89
2021/11/10 06:01:45;;;;;;;;;;;;;;;-145.06;100.00;60892.56;4871296;28;20355;-89
2021/11/10 06:04:24;;;;;;;0.65;0.65;;;;;;;-145.06;100.00;60892.56;4872209;28;19920;-89
2021/11/10 06:07:05;;;;;;;1.00;0.80;;;;;;;187.52;100.00;60892.56;4867215;28;20057;-89
2021/11/10 06:09:45;;;;;;;1.35;0.75;;;;;;;10.68;100.00;60892.56;4871803;28;20029;-89
2021/11/10 06:12:24;;;;;;;0.80;0.70;;;;;;;-145.06;100.00;60892.56;4870838;28;20479;-89
2021/11/10 06:15:03;;;;;;;1.38;0.77;;;;;;;21.08;100.00;60892.56;4870706;28;20033;-89
2021/11/10 06:17:43;;;;;;;0.82;0.80;;;;;;;-145.06;100.00;60892.56;4874520;28;20029;-89
2021/11/10 06:20:22;;;;;;;;;;;;;;;-145.06;100.00;60892.56;4872248;28;20041;-89
2021/11/10 06:23:02;;;;;;;0.98;0.77;;;;;;;-145.06;100.00;60892.56;4883691;28;19913;-89
2021/11/10 06:25:41;;;;;;;;;;;;;;;-145.06;100.00;60892.56;4873456;28;20482;-89
2021/11/10 06:28:20;;;;;;;0.70;0.60;;;;;;;-145.06;100.00;60892.56;4871632;28;20243;-89
2021/11/10 06:30:59;;;;;;;1.70;0.80;;;;;;;21.08;100.00;60892.56;4872487;28;20029;-89
2021/11/10 06:33:38;;;;;;;0.68;0.68;;;;;;;-145.06;100.00;60892.56;4875584;28;20037;-89
2021/11/10 06:36:17;;;;;;;0.70;0.70;;;;;;;-145.06;100.00;60892.56;4867347;28;20033;-90
2021/11/10 06:38:57;;;;;;;1.63;0.97;;;;;;;-145.06;100.00;60892.56;4869523;28;20108;-89
2021/11/10 06:41:36;;;;;;;0.68;0.65;;;;;;;-145.06;100.00;60892.56;4874539;28;20025;-89
2021/11/10 06:44:15;;;;;;;1.48;1.00;;;;;;;-145.06;100.00;60892.56;4868790;28;20033;-89
2021/11/10 06:46:59;;;;;;;1.70;0.88;;;;;;;10.68;100.00;60892.56;4867599;28;20026;-90
2021/11/10 06:49:38;;;;;;;1.33;0.90;;;;;;;10.68;100.00;60892.56;4866465;28;20041;-89
2021/11/10 06:52:17;;;;;;;2.43;0.93;;;;;;;-145.06;100.00;60892.56;4866057;28;20033;-89
2021/11/10 06:54:56;;;;;;;1.60;1.00;;;;;;;2.89;100.00;60892.56;4871130;28;20025;-89
2021/11/10 06:57:36;;;;;;;1.23;1.00;;;;;;;-145.06;100.00;60892.56;4868417;28;20029;-89
2021/11/10 07:00:16;;;;;;;2.30;1.02;;;;;;;-145.06;100.00;60892.56;4866786;28;20380;-89
2021/11/10 07:02:54;;;;;;;2.00;1.00;;;;;;;-145.06;100.00;60892.56;4872514;28;20029;-89
2021/11/10 07:05:33;;;;;;;1.07;0.80;;;;;;;10.68;100.00;60892.56;4868626;28;20025;-89
2021/11/10 07:08:12;;;;;;;0.93;0.77;;;;;;;-145.06;100.00;60892.56;4872184;28;20028;-89
2021/11/10 07:10:51;;;;;;;1.20;0.90;;;;;;;-145.06;100.00;60892.56;4865134;28;20271;-90
2021/11/10 07:13:30;;;;;;;10.20;2.05;;;;;;;-145.06;100.00;60892.56;4863549;28;20032;-88
2021/11/10 07:16:10;;;;;;;6.33;1.77;;;;;;;-145.06;100.00;60892.56;4864850;28;20111;-88
2021/11/10 07:18:49;;;;;;;3.00;1.50;;;;;;;-145.06;100.00;60892.56;4862701;28;21009;-88
2021/11/10 07:21:28;;;;;;;2.50;1.57;;;;;;;-145.06;100.00;60892.56;4860512;28;20396;-89
2021/11/10 07:24:07;;;;;;;1.40;1.00;;;;;;;-145.06;100.00;60892.56;4865724;28;20037;-89
2021/11/10 07:26:46;;;;;;;1.65;1.05;;;;;;;-145.06;100.00;60892.56;4868544;28;20033;-88
2021/11/10 07:29:28;;;;;;;3.47;1.30;;;;;;;-145.06;100.00;60892.56;4878443;28;20072;-89
2021/11/10 07:32:07;;;;;;;1.73;1.20;;;;;;;-145.06;100.00;60892.56;4873964;28;20037;-89
2021/11/10 07:34:47;;;;;;;2.42;1.40;;;;;;;-145.06;100.00;60892.56;4867820;28;20032;-89
2021/11/10 07:37:25;;;;;;;1.47;1.23;;;;;;;-145.06;100.00;60892.56;4867891;28;20036;-89
2021/11/10 07:40:06;;;;;;;3.53;1.37;;;;;;;-145.06;100.00;60892.56;4870541;28;20761;-88
2021/11/10 07:42:45;;;;;;;2.13;1.30;;;;;;;-145.06;100.00;60892.56;4868015;28;20653;-89
2021/11/10 07:46:13;;;;;;;1.90;1.08;;;;;;;-145.06;100.00;60892.56;4873134;28;20029;-88
2021/11/10 07:48:24;;;;;;;2.58;1.25;;;;;;;-145.06;100.00;60892.56;4872278;28;20111;-89
2021/11/10 07:51:03;;;;;;;1.53;1.20;;;;;;;-145.06;100.00;60892.56;4866796;28;20120;-88
2021/11/10 07:53:42;;;;;;;2.80;1.30;;;;;;;2.89;100.00;60892.56;4865420;28;20029;-89
2021/11/10 07:56:22;;;;;;;2.55;1.20;;;;;;;-145.06;100.00;60892.56;4866788;28;20115;-88
2021/11/10 07:59:01;;;;;;;1.95;1.20;;;;;;;-145.06;100.00;60892.56;4869083;28;20681;-88
2021/11/10 08:01:40;;;;;;;1.98;1.25;;;;;;;2.89;100.00;60892.56;4873618;28;20512;-89
2021/11/10 08:04:19;;;;;;;1.17;1.03;;;;;;;2.87;100.00;60892.56;4875681;28;20491;-89
2021/11/10 08:06:58;;;;;;;2.08;1.20;;;;;;;-145.06;100.00;60892.56;4868174;28;20347;-88
2021/11/10 08:09:37;;;;;;;1.57;1.20;;;;;;;10.68;100.00;60892.56;4870637;28;20483;-89
2021/11/10 08:12:16;;;;;;;2.20;1.30;;;;;;;-145.06;100.00;60892.56;4872218;28;20364;-88
2021/11/10 08:14:55;;;;;;;3.08;1.15;;;;;;;-145.06;100.00;60892.56;4869676;28;20271;-88
2021/11/10 08:17:38;;;;;;;1.47;1.27;;;;;;;-145.06;100.00;60892.56;4870254;28;20033;-88
2021/11/10 08:20:18;;;;;;;1.30;1.00;;;;;;;-145.06;100.00;60892.56;4868478;28;20451;-87
2021/11/10 08:22:57;;;;;;;;;;;;;;;-145.06;100.00;60892.56;4867007;28;20037;-88
2021/11/10 08:25:36;;;;;;;1.63;1.33;;;;;;;-145.06;100.00;60892.56;4872626;28;19913;-88
2021/11/10 08:28:15;;;;;;;1.33;1.10;;;;;;;-145.06;100.00;60892.56;4869487;28;20294;-88
2021/11/10 08:30:55;;;;;;;;;;;;;;;-145.06;100.00;60892.56;4869361;28;20279;-88
2021/11/10 08:33:34;;;;;;;1.65;0.93;;;;;;;-145.06;100.00;60892.56;4868841;28;20015;-88
2021/11/10 08:36:13;;;;;;;1.40;1.10;;;;;;;-145.06;100.00;60892.56;4871532;28;20029;-88
2021/11/10 08:38:56;;;;;;;1.90;1.50;;;;;;;-145.06;100.00;60892.56;4872122;28;20037;-89
2021/11/10 08:41:35;;;;;;;1.98;1.55;;;;;;;-145.06;100.00;60892.56;4875715;28;20279;-88
2021/11/10 08:44:16;;;;;;;1.90;1.55;;;;;;;-145.06;100.00;60892.56;4875400;28;20436;-89
2021/11/10 08:46:56;;;;;;;4.35;1.85;;;;;;;-145.06;100.00;60892.56;4877088;28;20116;-89
2021/11/10 08:49:35;;;;;;;2.35;1.60;;;;;;;-145.06;100.00;60892.56;4857620;28;20440;-87
2021/11/10 08:52:14;;;;;;;1.60;1.40;;;;;;;-145.06;100.00;60892.56;4879476;28;20040;-88
2021/11/10 08:54:54;;;;;;;4.22;1.73;;;;;;;-145.06;100.00;60892.56;4862186;28;20272;-88
2021/11/10 08:57:34;;;;;;;;;;;;;;;-145.06;100.00;60892.56;4870193;28;20037;-88
2021/11/10 09:00:19;;;;;;;0.88;0.75;;;;;;;-145.06;100.00;60892.56;4875735;28;20378;-88
2021/11/10 09:02:58;;;;;;;2.60;1.27;;;;;;;-145.06;100.00;60892.56;4876203;28;20029;-88
2021/11/10 09:05:37;;;;;;;2.50;1.15;;;;;;;-145.06;100.00;60892.56;4865716;28;20029;-88
2021/11/10 09:08:18;;;;;;;2.60;1.10;;;;;;;-145.06;100.00;60892.56;4875851;28;20036;-89
2021/11/10 09:10:59;;;;;;;3.28;1.48;;;;;;;-145.06;100.00;60892.56;4876652;28;20056;-88
2021/11/10 09:13:38;;;;;;;3.15;1.50;;;;;;;-145.06;100.00;60892.56;4868847;28;20022;-89
2021/11/10 09:16:17;;;;;;;2.30;1.48;;;;;;;-145.06;100.00;60892.56;4860079;28;20144;-89
2021/11/10 09:18:56;;;;;;;2.22;1.40;;;;;;;5.30;100.00;60892.56;4894873;28;20096;-88
2021/11/10 09:21:36;;;;;;;2.93;1.80;;;;;;;5.44;100.00;60892.56;4866723;28;20391;-89
2021/11/10 09:24:15;;;;;;;2.20;1.65;;;;;;;-145.06;100.00;60892.56;4860076;28;20558;-89
2021/11/10 09:26:54;;;;;;;3.30;1.77;;;;;;;-145.06;100.00;60892.56;4871215;28;20025;-89
2021/11/10 09:29:33;;;;;;;2.42;1.58;;;;;;;-145.06;100.00;60892.56;4875561;28;20033;-90
2021/11/10 09:32:12;;;;;;;2.17;1.60;;;;;;;-145.06;100.00;60892.56;4860096;28;20025;-89
2021/11/10 09:34:51;;;;;;;2.08;1.50;;;;;;;-145.06;100.00;60892.56;4864015;28;20025;-89
2021/11/10 09:37:31;;;;;;;1.98;1.48;;;;;;;-145.06;100.00;60892.56;4871119;28;20479;-89
2021/11/10 09:40:16;;;;;;;3.10;1.45;;;;;;;-145.06;100.00;60892.56;4874225;28;20443;-90
2021/11/10 09:42:56;;;;;;;2.88;1.73;;;;;;;-145.06;100.00;60892.56;4860262;28;20056;-88
2021/11/10 09:45:36;;;;;;;1.92;1.30;;;;;;;-145.06;100.00;60892.56;4862541;28;20018;-89
2021/11/10 09:48:16;;;;;;;2.75;1.50;;;;;;;-145.06;100.00;60892.56;4861025;28;20037;-89
2021/11/10 09:50:55;;;;;;;;;;;;;;;-145.06;100.00;60892.56;4854241;28;20045;-89
2021/11/10 09:53:36;;;;;;;1.30;1.20;;;;;;;-145.06;100.00;60892.56;4871021;28;19909;-89
2021/11/10 09:56:15;;;;;;;2.10;1.08;;;;;;;-145.06;100.00;60892.56;4868758;28;20037;-89
2021/11/10 09:58:54;;;;;;;1.58;1.10;;;;;;;-145.06;100.00;60892.56;4869034;28;20025;-89
2021/11/10 10:01:35;;;;;;;1.98;1.50;;;;;;;-145.06;100.00;60892.56;4873113;28;20060;-90
2021/11/10 10:04:14;;;;;;;3.10;1.33;;;;;;;-145.06;100.00;60892.56;4874735;28;20375;-90
2021/11/10 10:06:54;;;;;;;3.28;1.70;;;;;;;-145.06;100.00;60892.56;4872640;28;20021;-89
2021/11/10 10:09:33;;;;;;;1.92;1.38;;;;;;;-145.06;100.00;60892.56;4864104;28;20029;-89
2021/11/10 10:12:15;;;;;;;2.60;1.40;;;;;;;-145.06;100.00;60892.56;4884857;28;20029;-90
2021/11/10 10:14:55;;;;;;;2.03;1.08;;;;;;;-145.06;100.00;60892.56;4893286;28;20029;-89
2021/11/10 10:17:38;;;;;;;;;;;;;;;-145.06;100.00;60892.56;4867038;28;20065;-89
2021/11/10 10:20:30;;;;;;;1.83;1.10;;;;;;;-145.06;100.00;60892.56;4864988;28;19909;-89
2021/11/10 10:23:15;;;;;;;1.98;1.40;;;;;;;-145.06;100.00;60892.56;4869970;28;20033;-90
2021/11/10 10:25:54;;;;;;;2.40;1.30;;;;;;;-145.06;100.00;60892.56;4859397;28;20022;-89
2021/11/10 10:28:37;;;;;;;1.30;1.17;;;;;;;-145.06;100.00;60892.56;4866229;28;20021;-89
2021/11/10 10:31:29;;;;;;;2.05;1.40;;;;;;;-145.06;100.00;60892.56;4873990;28;20037;-90
2021/11/10 10:34:11;;;;;;;1.35;1.20;;;;;;;-145.06;100.00;60892.56;4870936;28;20092;-90
2021/11/10 10:36:50;;;;;;;2.88;1.27;;;;;;;-145.06;100.00;60892.56;4880629;28;20022;-89
2021/11/10 10:39:29;;;;;;;1.67;0.98;;;;;;;9.26;100.00;60892.56;4880387;28;20029;-89
2021/11/10 10:42:12;;;;;;;1.65;1.30;;;;;;;9.30;100.00;60892.56;4865213;28;20037;-90
2021/11/10 10:44:51;;;;;;;2.03;1.08;;;;;;;9.38;100.00;60892.56;4874275;28;20045;-90
2021/11/10 10:47:54;;;;;;;2.67;1.08;;;;;;;-145.06;100.00;60892.56;4861920;28;20589;-89
2021/11/10 10:50:54;;;;;;;1.42;1.13;;;;;;;-145.06;100.00;60892.56;4868784;28;20037;-90
2021/11/10 10:53:34;;;;;;;1.45;1.00;;;;;;;-145.06;100.00;60892.56;4854148;28;20025;-90
2021/11/10 10:56:31;;;;;;;1.17;0.82;;;;;;;-145.06;100.00;60892.56;4871492;28;20104;-89
2021/11/10 10:59:13;;;;;;;1.33;1.08;;;;;;;-145.06;100.00;60892.56;4863673;28;20029;-90
2021/11/10 11:02:03;;;;;;;1.52;1.02;;;;;;;-145.06;100.00;60892.56;4865044;28;20025;-89
2021/11/10 11:04:45;;;;;;;1.30;1.20;;;;;;;-145.06;100.00;60892.56;4868708;28;20021;-90
2021/11/10 11:07:32;;;;;;;1.33;0.95;;;;;;;-145.06;100.00;60892.56;4874529;28;20439;-88
2021/11/10 11:10:12;;;;;;;1.30;1.13;;;;;;;-145.06;100.00;60892.56;4877678;28;20037;-90
2021/11/10 11:12:52;;;;;;;1.30;1.20;;;;;;;-145.06;100.00;60892.56;4869539;28;20040;-89
2021/11/10 11:15:37;;;;;;;1.15;1.02;;;;;;;-145.06;100.00;60892.56;4866597;28;20026;-90
2021/11/10 11:18:20;;;;;;;1.33;1.13;;;;;;;-145.06;100.00;60892.56;4876838;28;20060;-89
2021/11/10 11:21:19;;;;;;;1.60;1.15;;;;;;;187.52;100.00;60892.56;4868070;28;20056;-90
2021/11/10 11:23:58;;;;;;;1.03;0.93;;;;;;;10.42;100.00;60892.56;4859791;28;20380;-90
2021/11/10 11:26:38;;;;;;;2.03;1.33;;;;;;;-145.06;100.00;60892.56;4875784;28;20267;-89
2021/11/10 11:29:22;;;;;;;;;;;;;;;-145.06;100.00;60892.56;4867271;28;20060;-89
2021/11/10 11:32:00;;;;;;;1.30;0.90;;;;;;;-145.06;100.00;60892.56;4873379;28;19956;-89
2021/11/10 11:35:21;;;;;;;1.67;1.00;;;;;;;-145.06;100.00;60892.56;4885049;28;20024;-90
2021/11/10 11:38:11;;;;;;;1.20;0.82;;;;;;;-145.06;100.00;60892.56;4875861;28;20634;-89
2021/11/10 11:40:51;;;;;;;;;;;;;;;-145.06;100.00;60892.56;4874905;28;20025;-90
2021/11/10 11:43:31;;;;;;;1.27;1.00;;;;;;;10.91;100.00;60892.56;4870125;28;19917;-89
2021/11/10 11:46:10;;;;;;;2.28;1.38;;;;;;;-145.06;100.00;60892.56;4878699;28;20486;-90
2021/11/10 11:48:49;;;;;;;1.27;1.00;;;;;;;-145.06;100.00;60892.56;4870467;28;20033;-89
2021/11/10 11:51:31;;;;;;;1.63;1.00;;;;;;;-145.06;100.00;60892.56;4861567;28;20503;-89
2021/11/10 11:54:10;;;;;;;1.27;1.10;;;;;;;-145.06;100.00;60892.56;4864321;28;20107;-89
2021/11/10 11:56:50;;;;;;;1.65;1.38;;;;;;;-145.06;100.00;60892.56;4861265;28;20030;-90
2021/11/10 11:59:29;;;;;;;2.10;1.00;;;;;;;-145.06;100.00;60892.56;4876817;28;20028;-89
2021/11/10 12:02:42;;;;;;;2.95;1.05;;;;;;;-145.06;100.00;60892.56;4876940;28;20041;-89
2021/11/10 12:05:25;;;;;;;2.38;1.40;;;;;;;-145.06;100.00;60892.56;4872208;28;20033;-89
2021/11/10 12:08:04;;;;;;;1.50;1.15;;;;;;;-145.06;100.00;60892.56;4873543;28;20028;-89
2021/11/10 12:10:43;;;;;;;1.83;1.10;;;;;;;-145.06;100.00;60892.56;4872091;28;20033;-89
2021/11/10 12:13:23;;;;;;;1.25;1.00;;;;;;;-145.06;100.00;60892.56;4859002;28;20040;-90
2021/11/10 12:16:18;;;;;;;1.45;1.05;;;;;;;11.63;100.00;60892.56;4857459;28;20104;-89